Time;durP1;ratioP1;P1;durP2;ratioP2;P2;SDS_P1;SDS_P2;PMS_P1;PMS_P2;Temp;Humidity;BMP_temperature;BMP_pressure;BME280_temperature;BME280_humidity;BME280_pressure;Samples;Min_cycle;Max_cycle;Signal;HPM_P1;HPM_P2
2022/11/02 00:01:44;;;;;;;6.68;5.45;;;22.40;51.40;;;;;;4979749;28;20415;-62
2022/11/02 00:04:11;;;;;;;7.03;5.60;;;22.40;51.30;;;;;;4979653;28;20051;-62
2022/11/02 00:06:40;;;;;;;6.55;5.68;;;22.40;51.30;;;;;;4978954;28;20055;-62
2022/11/02 00:09:07;;;;;;;7.40;6.13;;;22.40;51.30;;;;;;4979658;28;20051;-62
2022/11/02 00:11:36;;;;;;;6.65;5.82;;;22.40;51.30;;;;;;4979339;28;20054;-63
2022/11/02 00:14:03;;;;;;;7.38;5.90;;;22.40;51.30;;;;;;4979180;28;20047;-63
2022/11/02 00:16:31;;;;;;;7.07;5.60;;;22.40;51.30;;;;;;4979335;28;20065;-63
2022/11/02 00:19:00;;;;;;;6.32;5.70;;;22.40;51.30;;;;;;4979283;28;20046;-63
2022/11/02 00:21:27;;;;;;;5.70;5.07;;;22.40;51.30;;;;;;4980075;28;20108;-62
2022/11/02 00:23:57;;;;;;;7.20;5.70;;;22.40;51.30;;;;;;4978970;28;20050;-62
2022/11/02 00:26:26;;;;;;;8.43;6.20;;;22.40;51.30;;;;;;4979218;28;20051;-63
2022/11/02 00:28:54;;;;;;;7.05;5.72;;;22.40;51.30;;;;;;4977831;28;20062;-62
2022/11/02 00:31:21;;;;;;;5.90;5.20;;;22.40;51.30;;;;;;4979243;28;20054;-62
2022/11/02 00:33:48;;;;;;;6.43;5.70;;;22.40;51.30;;;;;;4979033;28;20051;-62
2022/11/02 00:36:16;;;;;;;7.80;6.47;;;22.40;51.30;;;;;;4979240;28;20057;-62
2022/11/02 00:38:43;;;;;;;7.68;5.72;;;22.40;51.30;;;;;;4978457;28;20046;-62
2022/11/02 00:41:11;;;;;;;6.13;5.13;;;22.40;51.30;;;;;;4979162;28;20069;-62
2022/11/02 00:43:38;;;;;;;6.00;5.40;;;22.40;51.30;;;;;;4978631;28;20046;-62
2022/11/02 00:46:05;;;;;;;7.43;5.90;;;22.40;51.30;;;;;;4978784;28;20054;-62
2022/11/02 00:48:32;;;;;;;7.35;5.75;;;22.40;51.30;;;;;;4979269;28;20387;-62
2022/11/02 00:50:59;;;;;;;8.30;5.55;;;22.40;51.30;;;;;;4978944;28;20055;-62
2022/11/02 00:53:27;;;;;;;7.03;5.78;;;22.40;51.30;;;;;;4978990;28;20057;-62
2022/11/02 00:55:54;;;;;;;8.23;5.72;;;22.40;51.30;;;;;;4978712;28;20049;-62
2022/11/02 00:58:21;;;;;;;5.90;5.13;;;22.40;51.30;;;;;;4978613;28;20410;-62
2022/11/02 01:00:48;;;;;;;8.10;6.10;;;22.40;51.30;;;;;;4978514;28;20049;-62
2022/11/02 01:03:15;;;;;;;6.82;5.00;;;22.40;51.30;;;;;;4978489;28;20054;-62
2022/11/02 01:05:42;;;;;;;5.88;4.97;;;22.40;51.30;;;;;;4977341;28;20058;-63
2022/11/02 01:08:09;;;;;;;5.75;5.15;;;22.40;51.30;;;;;;4978252;28;20061;-62
2022/11/02 01:10:36;;;;;;;5.72;4.80;;;22.40;51.40;;;;;;4978320;28;20057;-62
2022/11/02 01:13:03;;;;;;;5.95;5.30;;;22.40;51.40;;;;;;4978591;28;20062;-62
2022/11/02 01:15:30;;;;;;;6.03;4.82;;;22.30;51.40;;;;;;4978179;28;20047;-62
2022/11/02 01:17:57;;;;;;;6.65;5.40;;;22.40;51.40;;;;;;4977888;28;20062;-61
2022/11/02 01:20:24;;;;;;;6.15;5.55;;;22.40;51.50;;;;;;4977577;28;20062;-62
2022/11/02 01:22:51;;;;;;;5.63;5.13;;;22.30;51.40;;;;;;4978468;28;20061;-62
2022/11/02 01:25:18;;;;;;;6.55;5.05;;;22.40;51.50;;;;;;4978222;28;20073;-62
2022/11/02 01:27:45;;;;;;;6.68;5.55;;;22.40;51.50;;;;;;4977959;28;20047;-63
2022/11/02 01:30:13;;;;;;;7.13;5.60;;;22.40;51.50;;;;;;4978195;28;20055;-62
2022/11/02 01:32:40;;;;;;;5.93;5.30;;;22.40;51.50;;;;;;4978241;28;20053;-62
2022/11/02 01:35:08;;;;;;;6.10;5.50;;;22.40;51.50;;;;;;4978341;28;20053;-62
2022/11/02 01:37:35;;;;;;;5.68;5.10;;;22.30;51.50;;;;;;4978344;28;20082;-62
2022/11/02 01:40:02;;;;;;;9.02;5.60;;;22.40;51.50;;;;;;4977904;28;20066;-62
2022/11/02 01:42:29;;;;;;;6.53;5.30;;;22.30;51.90;;;;;;4978043;28;20054;-62
2022/11/02 01:44:56;;;;;;;5.32;4.75;;;22.30;51.40;;;;;;4978053;28;20058;-62
2022/11/02 01:47:30;;;;;;;6.18;5.15;;;22.40;51.40;;;;;;4976743;28;20051;-62
2022/11/02 01:50:11;;;;;;;6.15;4.95;;;22.40;51.40;;;;;;4961109;28;20054;-62
2022/11/02 01:52:40;;;;;;;5.90;5.25;;;22.40;51.40;;;;;;4977796;28;20051;-62
2022/11/02 01:55:23;;;;;;;6.20;5.47;;;22.40;51.40;;;;;;4961206;28;20069;-63
2022/11/02 01:57:55;;;;;;;5.88;5.07;;;22.40;51.40;;;;;;4977750;28;20065;-62
2022/11/02 02:00:23;;;;;;;5.50;4.88;;;22.40;51.30;;;;;;4978029;28;20054;-62
2022/11/02 02:03:07;;;;;;;5.50;4.80;;;22.40;51.30;;;;;;4977817;28;20050;-62
2022/11/02 02:05:40;;;;;;;5.50;4.97;;;22.40;51.30;;;;;;4977931;28;20046;-62
2022/11/02 02:08:09;;;;;;;5.85;5.18;;;22.40;51.30;;;;;;4977873;28;20122;-62
2022/11/02 02:10:36;;;;;;;6.32;5.15;;;22.40;51.30;;;;;;4977918;28;20050;-62
2022/11/02 02:13:05;;;;;;;6.22;5.53;;;22.40;51.30;;;;;;4977586;28;20047;-62
2022/11/02 02:16:01;;;;;;;6.47;4.93;;;22.40;51.30;;;;;;4976294;28;20057;-59
2022/11/02 02:18:43;;;;;;;5.28;4.75;;;22.40;51.90;;;;;;4976900;28;20058;-62
2022/11/02 02:21:34;;;;;;;5.60;5.00;;;22.30;51.30;;;;;;4978139;28;20058;-61
2022/11/02 02:24:11;;;;;;;;;;;22.40;51.30;;;;;;4977683;28;20085;-62
2022/11/02 02:27:01;;;;;;;7.40;5.13;;;22.40;51.30;;;;;;4977896;28;19922;-62
2022/11/02 02:29:44;;;;;;;6.40;5.25;;;22.40;51.40;;;;;;4977910;28;20110;-62
2022/11/02 02:32:51;;;;;;;5.78;4.78;;;22.30;51.30;;;;;;4981450;28;20503;-62
2022/11/02 02:35:40;;;;;;;5.25;4.75;;;22.40;51.40;;;;;;4980081;28;20046;-63
2022/11/02 02:38:13;;;;;;;6.00;5.15;;;22.30;51.30;;;;;;4980097;28;20081;-62
2022/11/02 02:40:48;;;;;;;5.30;4.80;;;22.30;51.30;;;;;;4981392;28;20047;-62
2022/11/02 02:43:27;;;;;;;6.68;5.25;;;22.30;51.30;;;;;;4980877;28;20058;-62
2022/11/02 02:46:09;;;;;;;6.55;4.93;;;22.40;51.40;;;;;;4980829;28;20046;-62
2022/11/02 02:48:40;;;;;;;5.20;4.65;;;22.30;51.30;;;;;;4980867;28;20507;-62
2022/11/02 02:51:13;;;;;;;5.70;4.82;;;22.30;51.30;;;;;;4980798;28;20043;-62
2022/11/02 02:53:52;;;;;;;6.10;4.85;;;22.40;51.40;;;;;;4980997;28;20392;-62
2022/11/02 02:56:22;;;;;;;5.28;4.75;;;22.30;51.40;;;;;;4980842;28;20106;-62
2022/11/02 02:58:59;;;;;;;6.05;5.32;;;22.30;51.40;;;;;;4980708;28;20058;-62
2022/11/02 03:01:27;;;;;;;4.72;4.22;;;22.30;51.40;;;;;;4979674;28;20046;-62
2022/11/02 03:03:54;;;;;;;6.43;5.32;;;22.30;51.40;;;;;;4980364;28;20118;-63
2022/11/02 03:06:34;;;;;;;5.85;5.03;;;22.30;51.40;;;;;;4981499;28;20063;-63
2022/11/02 03:09:28;;;;;;;5.75;4.75;;;22.30;51.40;;;;;;4981078;28;20468;-62
2022/11/02 03:12:23;;;;;;;5.78;5.20;;;22.30;51.40;;;;;;4980402;28;20050;-63
2022/11/02 03:15:20;;;;;;;5.28;4.32;;;22.30;51.50;;;;;;4980627;28;20047;-63
2022/11/02 03:18:19;;;;;;;4.93;4.30;;;22.30;51.80;;;;;;4980537;28;20051;-63
2022/11/02 03:21:17;;;;;;;4.85;4.35;;;22.30;51.50;;;;;;4979196;28;20050;-63
2022/11/02 03:23:54;;;;;;;6.30;4.90;;;22.30;51.50;;;;;;4979946;28;20051;-63
2022/11/02 03:26:42;;;;;;;5.75;4.60;;;22.30;52.00;;;;;;4980203;28;20062;-63
2022/11/02 03:29:27;;;;;;;5.20;4.70;;;22.30;51.50;;;;;;4980344;28;20051;-62
2022/11/02 03:31:59;;;;;;;5.40;4.70;;;22.30;51.50;;;;;;4980067;28;20055;-62
2022/11/02 03:34:47;;;;;;;5.55;4.07;;;22.30;51.50;;;;;;4979896;28;20058;-63
2022/11/02 03:37:34;;;;;;;5.47;4.57;;;22.30;51.50;;;;;;4978947;28;20054;-62
2022/11/02 03:40:22;;;;;;;5.50;4.90;;;22.30;51.60;;;;;;4979747;28;20058;-62
2022/11/02 03:42:52;;;;;;;6.55;4.78;;;22.30;51.50;;;;;;4978980;28;20061;-62
2022/11/02 03:45:26;;;;;;;5.30;4.68;;;22.30;51.50;;;;;;4979973;28;20047;-62
2022/11/02 03:47:57;;;;;;;6.20;5.22;;;22.30;51.50;;;;;;4978715;28;20050;-62
2022/11/02 03:50:26;;;;;;;5.10;4.53;;;22.30;51.50;;;;;;4980101;28;20395;-62
2022/11/02 03:53:05;;;;;;;5.50;4.75;;;22.30;51.50;;;;;;4980509;28;20438;-62
2022/11/02 03:55:44;;;;;;;5.35;4.80;;;22.30;51.40;;;;;;4979667;28;20506;-62
2022/11/02 03:58:11;;;;;;;5.07;4.57;;;22.30;51.40;;;;;;4979726;28;20078;-62
2022/11/02 04:00:51;;;;;;;5.60;4.47;;;22.30;51.40;;;;;;4978649;28;20423;-62
2022/11/02 04:03:21;;;;;;;6.07;5.10;;;22.30;51.40;;;;;;4979427;28;20054;-62
2022/11/02 04:05:48;;;;;;;3.88;3.55;;;22.30;51.40;;;;;;4979249;28;20051;-62
2022/11/02 04:08:21;;;;;;;5.00;4.47;;;22.30;51.30;;;;;;4979385;28;20057;-62
2022/11/02 04:16:23;;;;;;;6.28;4.72;;;22.30;51.30;;;;;;4979505;28;20534;-62
2022/11/02 04:25:14;;;;;;;5.45;4.78;;;22.30;51.30;;;;;;4979117;28;20057;-62
2022/11/02 04:27:15;;;;;;;6.03;4.60;;;22.30;51.30;;;;;;4978207;28;20061;-62
2022/11/02 04:29:46;;;;;;;5.53;4.68;;;22.30;51.30;;;;;;4979040;28;20050;-63
2022/11/02 04:32:14;;;;;;;5.22;4.40;;;22.30;51.30;;;;;;4978025;28;20055;-62
2022/11/02 04:34:41;;;;;;;6.18;4.97;;;22.30;51.40;;;;;;4978986;28;20506;-63
2022/11/02 04:38:39;;;;;;;6.35;4.72;;;22.30;51.40;;;;;;4979062;28;20058;-63
2022/11/02 04:39:59;;;;;;;5.97;5.03;;;22.30;51.40;;;;;;4979608;28;20047;-62
2022/11/02 04:42:26;;;;;;;5.88;4.72;;;22.30;51.40;;;;;;4978697;28;20413;-62
2022/11/02 04:44:53;;;;;;;4.95;4.45;;;22.30;51.30;;;;;;4978690;28;20534;-62
2022/11/02 04:47:20;;;;;;;4.72;4.00;;;22.30;51.40;;;;;;4978603;28;20050;-62
2022/11/02 04:49:47;;;;;;;4.82;4.32;;;22.30;51.40;;;;;;4978853;28;20480;-62
2022/11/02 04:52:14;;;;;;;5.05;4.40;;;22.30;51.40;;;;;;4978513;28;20050;-62
2022/11/02 04:54:42;;;;;;;5.70;4.97;;;22.30;51.40;;;;;;4978676;28;20409;-62
2022/11/02 04:57:09;;;;;;;4.88;4.40;;;22.30;51.40;;;;;;4979365;28;20385;-62
2022/11/02 04:59:36;;;;;;;5.72;5.10;;;22.30;51.40;;;;;;4961534;28;20047;-62
2022/11/02 05:02:03;;;;;;;5.30;4.80;;;22.30;51.40;;;;;;4978223;28;20061;-62
2022/11/02 05:04:30;;;;;;;6.03;4.50;;;22.30;51.40;;;;;;4978611;28;20097;-62
2022/11/02 05:06:57;;;;;;;4.55;4.15;;;22.30;51.40;;;;;;4978581;28;20077;-63
2022/11/02 05:09:27;;;;;;;5.28;4.65;;;22.30;51.40;;;;;;4979223;28;20055;-62
2022/11/02 05:11:54;;;;;;;5.45;4.50;;;22.20;51.40;;;;;;4978355;28;20051;-62
2022/11/02 05:14:22;;;;;;;5.18;4.35;;;22.30;51.50;;;;;;4978486;28;20050;-62
2022/11/02 05:16:49;;;;;;;4.65;4.18;;;22.30;51.50;;;;;;4978400;28;20047;-62
2022/11/02 05:19:16;;;;;;;4.40;3.97;;;22.30;51.50;;;;;;4978227;28;20522;-62
2022/11/02 05:21:44;;;;;;;4.75;4.15;;;22.30;51.50;;;;;;4976943;28;20050;-62
2022/11/02 05:24:11;;;;;;;4.95;4.22;;;22.20;51.50;;;;;;4978317;28;20057;-62
2022/11/02 05:26:38;;;;;;;5.45;4.45;;;22.30;51.50;;;;;;4978332;28;20043;-63
2022/11/02 05:29:06;;;;;;;4.22;3.83;;;22.20;51.50;;;;;;4977988;28;20518;-62
2022/11/02 05:31:33;;;;;;;4.55;4.10;;;22.30;51.60;;;;;;4978027;28;20498;-62
2022/11/02 05:34:00;;;;;;;5.45;4.43;;;22.30;51.60;;;;;;4976693;28;20146;-63
2022/11/02 05:36:27;;;;;;;6.72;5.05;;;22.20;51.50;;;;;;4976882;28;20042;-62
2022/11/02 05:38:55;;;;;;;5.95;5.13;;;22.20;51.50;;;;;;4978005;28;20050;-62
2022/11/02 05:41:22;;;;;;;6.75;5.32;;;22.20;51.30;;;;;;4978315;28;20055;-62
2022/11/02 05:43:49;;;;;;;8.50;6.47;;;22.30;51.20;;;;;;4978661;28;20050;-62
2022/11/02 05:46:17;;;;;;;8.57;5.47;;;22.20;51.00;;;;;;4977694;28;20049;-62
2022/11/02 05:48:44;;;;;;;9.10;5.63;;;22.30;51.00;;;;;;4976811;28;20492;-62
2022/11/02 05:51:12;;;;;;;7.90;5.90;;;22.30;51.00;;;;;;4978202;28;20061;-62
2022/11/02 05:53:39;;;;;;;6.43;5.55;;;22.20;50.90;;;;;;4977500;28;20058;-62
2022/11/02 05:56:08;;;;;;;6.95;5.53;;;22.30;50.90;;;;;;4977729;28;20051;-62
2022/11/02 05:58:35;;;;;;;5.70;5.10;;;22.30;50.90;;;;;;4978229;28;20050;-62
2022/11/02 06:01:06;;;;;;;7.38;5.70;;;22.30;50.90;;;;;;4973185;28;20034;-62
2022/11/02 06:03:34;;;;;;;7.18;5.38;;;22.30;50.80;;;;;;4976234;28;20058;-62
2022/11/02 06:06:09;;;;;;;7.55;6.10;;;22.30;50.80;;;;;;4979701;28;20062;-63
2022/11/02 06:08:37;;;;;;;9.52;6.60;;;22.30;50.70;;;;;;4976308;28;20062;-62
2022/11/02 06:11:06;;;;;;;9.00;6.25;;;22.30;50.70;;;;;;4963709;28;20051;-62
2022/11/02 06:13:34;;;;;;;6.85;6.05;;;22.30;50.80;;;;;;4965409;28;20046;-62
2022/11/02 06:16:02;;;;;;;8.88;6.30;;;22.20;50.70;;;;;;4972300;28;20046;-62
2022/11/02 06:18:30;;;;;;;11.10;6.68;;;22.20;50.70;;;;;;4969376;28;20416;-59
2022/11/02 06:20:58;;;;;;;10.07;6.68;;;22.20;50.80;;;;;;4972557;28;21213;-58
2022/11/02 06:23:26;;;;;;;8.55;6.05;;;22.20;51.00;;;;;;4972930;28;20097;-58
2022/11/02 06:25:55;;;;;;;8.88;6.43;;;22.20;51.00;;;;;;4979454;28;20502;-57
2022/11/02 06:28:26;;;;;;;10.23;6.63;;;22.30;51.10;;;;;;4979302;28;20066;-61
2022/11/02 06:31:24;;;;;;;11.05;6.38;;;22.30;51.20;;;;;;4979443;28;20053;-61
2022/11/02 06:33:51;;;;;;;9.75;6.55;;;22.30;51.20;;;;;;4980129;28;20057;-62
2022/11/02 06:36:34;;;;;;;11.07;6.10;;;22.30;51.20;;;;;;4979717;28;20047;-62
2022/11/02 06:42:44;;;;;;;9.85;6.10;;;22.30;51.30;;;;;;4960318;28;20038;-62
2022/11/02 06:45:31;;;;;;;9.48;6.90;;;22.40;51.50;;;;;;4960172;28;20146;-62
2022/11/02 06:47:58;;;;;;;11.27;6.50;;;22.40;51.60;;;;;;4961334;28;20059;-60
2022/11/02 06:50:25;;;;;;;12.77;7.72;;;22.40;51.80;;;;;;4959249;29;20487;-60
2022/11/02 06:52:52;;;;;;;11.93;7.95;;;22.40;52.00;;;;;;4963631;28;20051;-60
2022/11/02 06:56:12;;;;;;;9.90;7.45;;;22.50;52.10;;;;;;4960922;28;20070;-61
2022/11/02 06:58:39;;;;;;;12.27;7.10;;;22.50;52.20;;;;;;4973566;28;20038;-62
2022/11/02 07:01:07;;;;;;;9.38;6.30;;;22.60;51.80;;;;;;4979877;28;20277;-60
2022/11/02 07:03:35;;;;;;;9.48;7.00;;;22.60;51.80;;;;;;4980312;28;20218;-61
2022/11/02 07:06:02;;;;;;;10.13;7.22;;;22.60;52.00;;;;;;4979423;28;20046;-62
2022/11/02 07:08:32;;;;;;;9.80;6.72;;;22.70;51.80;;;;;;4979606;28;20057;-61
2022/11/02 07:10:59;;;;;;;12.63;6.18;;;22.70;51.80;;;;;;4979567;28;20047;-61
2022/11/02 07:13:27;;;;;;;10.15;6.75;;;22.80;51.80;;;;;;4974950;28;20046;-62
2022/11/02 07:20:09;;;;;;;14.77;7.43;;;22.80;51.50;;;;;;4969421;28;20577;-62
2022/11/02 07:29:58;;;;;;;11.02;6.53;;;23.00;51.10;;;;;;4959675;29;20046;-60
2022/11/02 07:32:25;;;;;;;9.55;6.80;;;23.00;51.00;;;;;;4959177;28;20055;-62
2022/11/02 07:34:52;;;;;;;10.75;6.85;;;23.00;51.10;;;;;;4961381;28;20044;-64
2022/11/02 07:37:19;;;;;;;9.80;7.32;;;23.00;51.20;;;;;;4958926;28;20055;-58
2022/11/02 07:39:46;;;;;;;8.27;6.55;;;23.10;51.30;;;;;;4959034;28;20062;-63
2022/11/02 07:42:13;;;;;;;12.00;7.85;;;23.10;51.30;;;;;;4959144;28;20055;-59
2022/11/02 07:44:40;;;;;;;11.60;7.20;;;23.20;51.30;;;;;;4959298;28;20057;-61
2022/11/02 07:47:07;;;;;;;11.27;6.80;;;23.20;51.10;;;;;;4958949;28;20052;-61
2022/11/02 07:49:34;;;;;;;12.10;6.82;;;23.20;51.10;;;;;;4959322;28;20408;-59
2022/11/02 07:52:01;;;;;;;15.10;7.35;;;23.30;51.00;;;;;;4958722;28;20049;-61
2022/11/02 07:54:28;;;;;;;8.85;6.60;;;23.30;51.00;;;;;;4958993;28;20137;-59
2022/11/02 07:56:55;;;;;;;9.98;6.80;;;23.40;50.80;;;;;;4958925;28;20131;-63
2022/11/02 07:59:22;;;;;;;10.45;7.22;;;23.40;50.60;;;;;;4958804;29;20058;-60
2022/11/02 08:01:49;;;;;;;8.88;6.85;;;23.40;50.40;;;;;;4957544;29;20484;-62
2022/11/02 08:04:16;;;;;;;10.02;7.07;;;23.40;50.30;;;;;;4958477;28;20055;-63
2022/11/02 08:06:43;;;;;;;10.85;7.15;;;23.50;50.40;;;;;;4958278;29;20079;-63
2022/11/02 08:09:11;;;;;;;15.95;6.60;;;23.50;50.30;;;;;;4959514;28;20058;-62
2022/11/02 08:11:38;;;;;;;13.82;7.25;;;23.50;50.20;;;;;;4957108;29;20051;-63
2022/11/02 08:14:05;;;;;;;11.20;7.18;;;23.60;50.20;;;;;;4958193;28;20055;-63
2022/11/02 08:16:32;;;;;;;10.15;7.28;;;23.60;50.10;;;;;;4959712;28;20051;-62
2022/11/02 08:18:59;;;;;;;10.30;6.85;;;23.60;50.00;;;;;;4957356;29;20051;-61
2022/11/02 08:21:26;;;;;;;11.32;6.88;;;23.60;50.00;;;;;;4957522;29;20488;-62
2022/11/02 08:23:54;;;;;;;14.80;7.13;;;23.60;50.00;;;;;;4958256;29;20062;-65
2022/11/02 08:26:24;;;;;;;10.82;6.80;;;23.60;49.90;;;;;;4958386;28;20051;-62
2022/11/02 08:28:51;;;;;;;9.00;6.65;;;23.60;50.00;;;;;;4959442;28;20058;-62
2022/11/02 08:31:18;;;;;;;10.38;6.78;;;23.60;50.00;;;;;;4960052;28;20054;-61
2022/11/02 08:33:45;;;;;;;11.73;6.60;;;23.70;50.00;;;;;;4958896;28;20426;-62
2022/11/02 08:36:13;;;;;;;10.88;7.10;;;23.70;49.90;;;;;;4957442;28;20038;-62
2022/11/02 08:38:41;;;;;;;12.43;7.00;;;23.60;49.80;;;;;;4952909;28;20058;-62
2022/11/02 08:41:08;;;;;;;8.90;6.60;;;23.70;49.80;;;;;;4960902;28;20125;-61
2022/11/02 08:43:35;;;;;;;10.52;7.13;;;23.70;49.70;;;;;;4963518;28;20105;-61
2022/11/02 08:46:02;;;;;;;9.65;6.60;;;23.70;49.70;;;;;;4959786;28;20050;-60
2022/11/02 08:48:46;;;;;;;10.75;7.47;;;23.70;49.60;;;;;;4950138;28;20502;-63
2022/11/02 08:51:13;;;;;;;11.95;6.88;;;23.70;49.60;;;;;;4953069;28;20078;-63
2022/11/02 08:53:40;;;;;;;10.35;7.45;;;23.70;49.60;;;;;;4954554;28;20077;-62
2022/11/02 08:56:11;;;;;;;11.10;7.07;;;23.70;49.70;;;;;;4954680;28;20051;-63
2022/11/02 08:58:38;;;;;;;9.10;6.70;;;23.80;49.80;;;;;;4955589;28;20050;-62
2022/11/02 09:01:06;;;;;;;9.85;7.00;;;23.80;50.40;;;;;;4956268;28;20046;-61
2022/11/02 09:03:33;;;;;;;9.68;6.88;;;23.80;49.80;;;;;;4954672;28;20462;-60
2022/11/02 09:06:01;;;;;;;11.52;6.28;;;23.90;50.00;;;;;;4956300;28;20051;-61
2022/11/02 09:08:29;;;;;;;9.52;7.07;;;23.90;50.20;;;;;;4958482;28;20507;-63
2022/11/02 09:11:01;;;;;;;7.75;6.10;;;23.90;50.20;;;;;;4960479;28;20081;-60
2022/11/02 09:13:29;;;;;;;9.65;6.82;;;23.90;50.10;;;;;;4959745;28;20051;-61
2022/11/02 09:15:57;;;;;;;9.63;7.10;;;24.00;50.10;;;;;;4957215;28;20454;-62
2022/11/02 09:18:25;;;;;;;10.75;6.53;;;24.00;50.00;;;;;;4954474;28;20475;-61
2022/11/02 09:20:52;;;;;;;8.30;5.95;;;24.10;50.00;;;;;;4954218;28;20057;-62
2022/11/02 09:23:20;;;;;;;8.70;6.55;;;24.10;49.90;;;;;;4951568;28;20050;-61
2022/11/02 09:25:48;;;;;;;9.73;6.57;;;24.10;49.70;;;;;;4950319;28;20054;-61
2022/11/02 09:28:15;;;;;;;12.13;7.13;;;24.10;49.60;;;;;;4960447;28;20062;-62
2022/11/02 09:30:42;;;;;;;9.50;7.20;;;24.10;49.50;;;;;;4955097;28;20055;-61
2022/11/02 09:33:10;;;;;;;12.70;6.97;;;24.20;49.40;;;;;;4954098;28;20043;-61
2022/11/02 09:35:41;;;;;;;7.72;6.32;;;24.20;49.20;;;;;;4954356;28;20051;-61
2022/11/02 09:38:09;;;;;;;14.07;6.50;;;24.30;49.20;;;;;;4961711;28;20057;-60
2022/11/02 09:40:43;;;;;;;8.52;6.40;;;24.30;49.10;;;;;;4958592;28;20065;-61
2022/11/02 09:43:50;;;;;;;12.98;7.22;;;24.30;48.90;;;;;;4957357;28;20135;-63
2022/11/02 09:46:29;;;;;;;10.57;6.53;;;24.30;48.80;;;;;;4957918;28;20051;-61
2022/11/02 09:49:00;;;;;;;10.05;6.90;;;24.40;48.90;;;;;;4953007;28;20054;-61
2022/11/02 09:51:45;;;;;;;13.23;6.13;;;24.40;49.00;;;;;;4956466;28;20415;-62
2022/11/02 09:54:31;;;;;;;8.00;6.32;;;24.30;49.00;;;;;;4954182;28;20051;-60
2022/11/02 09:57:07;;;;;;;9.57;6.32;;;24.40;49.20;;;;;;4949676;28;20145;-60
2022/11/02 09:59:35;;;;;;;13.25;6.15;;;24.40;49.10;;;;;;4954794;28;20046;-59
2022/11/02 10:02:42;;;;;;;9.95;5.50;;;24.40;49.00;;;;;;4959529;28;20498;-60
2022/11/02 10:05:36;;;;;;;8.50;6.20;;;24.40;48.90;;;;;;4960807;28;20581;-63
2022/11/02 10:08:37;;;;;;;8.80;6.07;;;24.40;49.00;;;;;;4956565;28;20059;-60
2022/11/02 10:11:44;;;;;;;7.63;5.93;;;24.40;48.90;;;;;;4959186;28;20058;-61
2022/11/02 10:14:30;;;;;;;13.20;6.65;;;24.50;49.00;;;;;;4957186;28;20047;-61
2022/11/02 10:17:10;;;;;;;8.57;6.10;;;24.50;49.10;;;;;;4965364;28;20058;-61
2022/11/02 10:33:24;;;;;;;13.27;6.80;;;24.50;48.80;;;;;;4973122;28;20042;-61
2022/11/02 10:36:17;;;;;;;10.25;6.43;;;24.50;48.80;;;;;;4976112;28;20057;-59
2022/11/02 10:39:10;;;;;;;8.60;6.18;;;24.60;48.80;;;;;;4974600;28;20051;-61
2022/11/02 10:42:00;;;;;;;11.45;5.88;;;24.60;48.70;;;;;;4975813;28;20047;-59
2022/11/02 10:44:39;;;;;;;;;;;24.60;48.80;;;;;;4976402;28;20055;-60
2022/11/02 10:47:17;;;;;;;8.88;6.50;;;24.60;48.90;;;;;;4975651;28;19929;-60
2022/11/02 10:50:29;;;;;;;8.00;5.93;;;24.60;48.90;;;;;;4977527;28;20057;-60
2022/11/02 10:53:44;;;;;;;8.85;6.03;;;24.60;48.80;;;;;;4979016;28;20609;-64
2022/11/02 11:04:18;;;;;;;6.95;5.53;;;24.70;48.80;;;;;;4979350;28;20046;-64
2022/11/02 11:06:45;;;;;;;7.60;5.80;;;24.70;48.90;;;;;;4972300;28;20046;-61
2022/11/02 11:09:31;;;;;;;5.70;4.75;;;24.70;48.90;;;;;;4979555;28;20059;-65
2022/11/02 11:12:21;;;;;;;12.18;5.93;;;24.70;48.80;;;;;;4979462;28;20062;-65
2022/11/02 11:14:57;;;;;;;8.13;5.38;;;24.70;48.70;;;;;;4978916;28;20130;-62
2022/11/02 11:17:44;;;;;;;7.93;5.70;;;24.70;48.60;;;;;;4978804;28;20050;-61
2022/11/02 11:25:20;;;;;;;10.63;6.20;;;24.70;48.50;;;;;;4961108;28;20488;-60
2022/11/02 11:27:56;;;;;;;6.13;4.93;;;24.60;48.60;;;;;;4959672;29;20141;-59
2022/11/02 11:30:27;;;;;;;;;;;24.60;48.60;;;;;;4959581;28;20051;-64
2022/11/02 11:33:18;;;;;;;12.10;5.43;;;24.60;48.60;;;;;;4957903;28;19926;-65
2022/11/02 11:39:37;;;;;;;;;;;24.60;48.60;;;;;;5216938;23;20149;-64
2022/11/02 11:42:19;;;;;;;6.93;5.28;;;24.70;48.60;;;;;;4979046;28;20273;-61
2022/11/02 11:44:55;;;;;;;9.57;6.20;;;24.70;48.50;;;;;;4960772;28;20399;-64
2022/11/02 11:47:36;;;;;;;6.72;5.20;;;24.70;48.50;;;;;;4959234;28;20051;-60
2022/11/02 11:54:21;;;;;;;7.28;4.78;;;24.70;48.30;;;;;;4940364;29;20043;-66
2022/11/02 11:57:31;;;;;;;5.28;4.63;;;24.70;48.20;;;;;;4940727;29;20404;-61
2022/11/02 12:07:55;;;;;;;10.30;5.15;;;24.80;48.30;;;;;;5565390;23;20049;-61
2022/11/02 12:10:55;;;;;;;6.70;4.95;;;24.80;48.20;;;;;;4983130;28;20057;-61
2022/11/02 12:14:14;;;;;;;8.35;5.30;;;24.80;48.30;;;;;;4978290;28;20525;-61
2022/11/02 12:17:10;;;;;;;11.32;6.20;;;24.70;48.40;;;;;;5015941;28;20073;-60
2022/11/02 12:20:12;;;;;;;6.75;4.88;;;24.70;48.70;;;;;;5017029;28;20401;-62
2022/11/02 12:23:14;;;;;;;7.25;5.00;;;24.70;48.70;;;;;;5017056;28;20492;-61
2022/11/02 12:30:28;;;;;;;9.73;5.00;;;24.70;48.60;;;;;;4991944;28;20048;-62
2022/11/02 12:33:30;;;;;;;6.22;4.55;;;24.70;49.00;;;;;;4996858;28;20048;-65
2022/11/02 12:36:15;;;;;;;7.20;4.40;;;24.80;49.10;;;;;;4982825;28;20055;-62
2022/11/02 12:39:03;;;;;;;7.25;4.60;;;24.70;48.80;;;;;;4977677;28;20050;-62
2022/11/02 12:41:58;;;;;;;6.70;4.45;;;24.80;48.90;;;;;;4960775;28;20049;-61
2022/11/02 12:45:00;;;;;;;4.72;4.22;;;24.70;48.90;;;;;;4990975;28;20046;-60
2022/11/02 12:47:56;;;;;;;8.85;4.32;;;24.70;49.00;;;;;;4996611;28;20482;-62
2022/11/02 12:50:54;;;;;;;4.53;4.10;;;24.70;49.10;;;;;;4997208;28;20064;-62
2022/11/02 12:53:45;;;;;;;5.18;4.20;;;24.70;49.20;;;;;;4984673;28;20061;-62
2022/11/02 12:56:21;;;;;;;7.15;4.15;;;24.70;49.30;;;;;;4996985;28;20486;-61
2022/11/02 13:13:02;;;;;;;5.05;4.10;;;24.70;49.50;;;;;;4975904;28;20105;-62
2022/11/02 13:15:34;;;;;;;8.18;4.35;;;24.70;49.60;;;;;;4959192;28;20055;-61
2022/11/02 13:18:09;;;;;;;7.68;4.28;;;24.70;49.50;;;;;;4957687;29;20051;-61
2022/11/02 13:20:44;;;;;;;6.22;3.75;;;24.70;49.50;;;;;;4957525;29;20058;-60
2022/11/02 13:24:07;;;;;;;6.05;4.22;;;24.70;49.50;;;;;;4939431;29;20363;-61
2022/11/02 13:35:34;;;;;;;4.47;3.85;;;24.60;49.60;;;;;;5743697;22;20065;-61
2022/11/02 13:38:29;;;;;;;8.53;4.33;;;24.60;49.70;;;;;;5004286;28;20452;-64
2022/11/02 13:41:30;;;;;;;8.68;4.80;;;24.60;49.80;;;;;;5017973;28;20282;-59
2022/11/02 14:14:14;;;;;;;5.05;4.40;;;24.50;50.00;;;;;;6103366;22;1828126;-60
2022/11/02 14:16:58;;;;;;;10.63;5.40;;;24.60;50.80;;;;;;6162986;23;20063;-59
2022/11/02 14:19:31;;;;;;;6.88;4.88;;;24.50;50.90;;;;;;6136290;23;20018;-60
2022/11/02 14:22:11;;;;;;;6.03;4.65;;;24.50;51.00;;;;;;6161488;23;20024;-60
2022/11/02 14:25:06;;;;;;;7.05;4.55;;;24.50;50.80;;;;;;6161459;23;20105;-59
2022/11/02 14:27:34;;;;;;;7.38;4.88;;;24.40;50.80;;;;;;6161372;23;20051;-60
2022/11/02 14:30:01;;;;;;;8.63;4.70;;;24.30;50.80;;;;;;6161211;23;20032;-65
2022/11/02 14:32:40;;;;;;;12.10;5.22;;;24.30;51.10;;;;;;6161249;23;20025;-58
2022/11/02 14:35:37;;;;;;;10.10;4.95;;;24.30;51.50;;;;;;6161988;23;20017;-58
2022/11/02 14:38:35;;;;;;;8.63;4.47;;;24.20;51.70;;;;;;6135398;23;20028;-64
2022/11/02 14:41:42;;;;;;;9.50;4.95;;;24.20;51.90;;;;;;6139403;23;20021;-64
2022/11/02 14:44:45;;;;;;;7.72;4.80;;;24.20;51.90;;;;;;6162527;23;20103;-59
2022/11/02 14:47:16;;;;;;;9.38;5.32;;;24.10;52.00;;;;;;6136934;23;20025;-60
2022/11/02 14:50:31;;;;;;;8.55;5.10;;;24.10;52.30;;;;;;6158448;23;20439;-60
2022/11/02 14:57:39;;;;;;;9.65;5.05;;;24.10;52.30;;;;;;6134326;22;20262;-60
2022/11/02 15:00:22;;;;;;;13.27;6.07;;;24.10;52.30;;;;;;6102817;23;20045;-60
2022/11/02 15:02:52;;;;;;;11.35;5.30;;;24.10;52.30;;;;;;6103133;23;20029;-59
2022/11/02 15:05:38;;;;;;;9.73;5.38;;;24.10;52.30;;;;;;6078197;23;20029;-60
2022/11/02 15:08:24;;;;;;;6.90;4.75;;;24.10;52.40;;;;;;6103667;23;20018;-60
2022/11/02 15:10:51;;;;;;;8.27;5.60;;;24.10;52.40;;;;;;6104177;23;20101;-60
2022/11/02 15:13:45;;;;;;;10.65;6.05;;;24.10;52.40;;;;;;6102030;23;20356;-60
2022/11/02 15:16:15;;;;;;;13.55;6.65;;;24.10;52.20;;;;;;6096473;23;20018;-63
2022/11/02 15:18:42;;;;;;;12.65;6.65;;;24.10;52.10;;;;;;6096343;23;20034;-60
2022/11/02 15:21:27;;;;;;;13.18;6.22;;;24.10;52.20;;;;;;6095742;23;20097;-59
2022/11/02 15:24:10;;;;;;;8.45;5.65;;;24.10;52.50;;;;;;6096016;23;20018;-59
2022/11/02 15:26:54;;;;;;;12.75;6.50;;;24.10;52.40;;;;;;6074534;23;20030;-59
2022/11/02 15:37:02;;;;;;;12.75;6.85;;;24.10;52.50;;;;;;6125437;22;20049;-60
2022/11/02 15:39:30;;;;;;;14.23;7.85;;;24.20;52.30;;;;;;6121805;23;20021;-60
2022/11/02 15:42:05;;;;;;;15.63;7.40;;;24.20;52.00;;;;;;6126590;23;20076;-60
2022/11/02 15:45:07;;;;;;;18.27;8.07;;;24.10;52.10;;;;;;6127821;23;20030;-61
2022/11/02 15:48:34;;;;;;;18.98;8.10;;;24.20;52.30;;;;;;6121162;23;20045;-64